Time;durP1;ratioP1;P1;durP2;ratioP2;P2;SDS_P1;SDS_P2;PMS_P1;PMS_P2;Temp;Humidity;BMP_temperature;BMP_pressure;BME280_temperature;BME280_humidity;BME280_pressure;Samples;Min_cycle;Max_cycle;Signal;HPM_P1;HPM_P2
2022/05/12 00:00:09;;;;;;;0.30;0.30;;;;;;;21.99;45.63;101226.19;5084107;28;20032;-48
2022/05/12 00:02:35;;;;;;;;;;;;;;;21.93;45.54;101232.34;5080688;28;20039;-51
2022/05/12 00:05:02;;;;;;;0.47;0.30;;;;;;;21.93;45.56;101235.91;5084530;28;19912;-49
2022/05/12 00:07:27;;;;;;;0.45;0.30;;;;;;;21.93;45.57;101241.31;5069182;28;20051;-50
2022/05/12 00:09:53;;;;;;;0.45;0.45;;;;;;;21.91;45.27;101237.94;5084048;28;20029;-48
2022/05/12 00:12:18;;;;;;;0.38;0.35;;;;;;;21.93;45.32;101249.44;5084687;28;20031;-51
2022/05/12 00:14:43;;;;;;;0.50;0.30;;;;;;;21.93;45.44;101241.31;5068383;28;20033;-49
2022/05/12 00:17:09;;;;;;;0.40;0.22;;;;;;;21.91;45.52;101256.88;5067724;28;20040;-52
2022/05/12 00:19:34;;;;;;;0.60;0.60;;;;;;;21.92;45.47;101261.28;5085214;28;20028;-51
2022/05/12 00:21:59;;;;;;;0.40;0.30;;;;;;;21.92;45.68;101261.28;5083445;28;20036;-48
2022/05/12 00:24:24;;;;;;;0.50;0.30;;;;;;;21.92;45.69;101272.13;5065032;28;20036;-47
2022/05/12 00:26:50;;;;;;;0.30;0.20;;;;;;;21.92;45.37;101272.13;5083700;28;20035;-50
2022/05/12 00:29:15;;;;;;;0.88;0.30;;;;;;;21.91;45.49;101275.84;5084883;28;20024;-50
2022/05/12 00:31:42;;;;;;;0.80;0.47;;;;;;;21.89;45.31;101272.47;5082592;28;20035;-50
2022/05/12 00:34:08;;;;;;;0.90;0.45;;;;;;;21.91;45.40;101288.53;5084875;28;20062;-49
2022/05/12 00:36:35;;;;;;;0.40;0.30;;;;;;;21.91;45.30;101297.50;5067155;28;20133;-51
2022/05/12 00:39:00;;;;;;;0.50;0.30;;;;;;;21.90;45.27;101290.41;5074553;28;20033;-50
2022/05/12 00:41:26;;;;;;;0.52;0.40;;;;;;;21.91;45.39;101296.66;5067750;28;20033;-52
2022/05/12 00:44:02;;;;;;;0.47;0.30;;;;;;;21.92;45.26;101292.94;5068314;28;20020;-50
2022/05/12 00:46:31;;;;;;;0.50;0.40;;;;;;;21.89;45.05;101299.53;5063739;28;20044;-49
2022/05/12 00:48:59;;;;;;;1.00;0.47;;;;;;;21.90;45.27;101297.69;5078505;28;20037;-50
2022/05/12 00:51:31;;;;;;;0.60;0.30;;;;;;;21.90;45.36;101308.50;5077094;28;20039;-51
2022/05/12 00:53:58;;;;;;;1.08;0.40;;;;;;;21.89;45.08;101309.53;5079296;28;20446;-52
2022/05/12 00:56:23;;;;;;;0.40;0.22;;;;;;;21.89;45.15;101314.94;5083957;28;20020;-51
2022/05/12 00:58:51;;;;;;;0.52;0.38;;;;;;;21.88;45.10;101324.94;5083364;28;20028;-52
2022/05/12 01:01:17;;;;;;;0.43;0.30;;;;;;;21.86;45.10;101318.84;5068948;28;20475;-49
2022/05/12 01:03:43;;;;;;;0.63;0.40;;;;;;;21.87;45.25;101330.50;5064439;28;20028;-48
2022/05/12 01:06:10;;;;;;;0.20;0.20;;;;;;;21.86;45.41;101328.84;5078979;28;20032;-49
2022/05/12 01:08:36;;;;;;;0.50;0.40;;;;;;;21.85;45.30;101330.69;5084480;28;20039;-52
2022/05/12 01:11:12;;;;;;;0.98;0.45;;;;;;;21.86;45.39;101340.50;5082987;28;20029;-48
2022/05/12 01:13:37;;;;;;;0.47;0.35;;;;;;;21.82;45.32;101330.22;5083668;28;20557;-48
2022/05/12 01:16:05;;;;;;;0.65;0.30;;;;;;;21.84;45.52;101347.97;5083286;28;20045;-48
2022/05/12 01:18:32;;;;;;;0.40;0.32;;;;;;;21.84;45.60;101341.72;5069021;28;20036;-51
2022/05/12 01:20:58;;;;;;;0.60;0.32;;;;;;;21.83;45.42;101359.78;5065516;28;20044;-48
2022/05/12 01:23:24;;;;;;;0.32;0.30;;;;;;;21.82;45.42;101346.44;5074138;28;20710;-51
2022/05/12 01:25:50;;;;;;;0.80;0.40;;;;;;;21.82;45.55;101351.88;5083664;28;20032;-52
2022/05/12 01:28:16;;;;;;;0.43;0.28;;;;;;;21.81;45.81;101359.16;5074895;28;20040;-51
2022/05/12 01:30:41;;;;;;;1.45;0.50;;;;;;;21.79;45.44;101363.91;5062999;28;20040;-49
2022/05/12 01:33:07;;;;;;;0.50;0.30;;;;;;;21.80;45.64;101368.28;5071457;28;20039;-48
2022/05/12 01:35:32;;;;;;;0.65;0.30;;;;;;;21.80;45.50;101371.00;5083741;28;20064;-47
2022/05/12 01:37:59;;;;;;;0.85;0.38;;;;;;;21.78;45.86;101367.63;5078715;28;20048;-49
2022/05/12 01:40:24;;;;;;;0.20;0.20;;;;;;;21.78;45.77;101372.19;5095162;28;20032;-46
2022/05/12 01:42:50;;;;;;;0.88;0.35;;;;;;;21.77;45.79;101376.75;5083241;28;20039;-50
2022/05/12 01:45:17;;;;;;;0.95;0.50;;;;;;;21.78;45.70;101388.44;5065612;28;20024;-53
2022/05/12 01:47:43;;;;;;;0.45;0.30;;;;;;;21.76;45.94;101385.06;5070428;28;20048;-53
2022/05/12 01:50:09;;;;;;;0.63;0.30;;;;;;;21.76;45.70;101387.78;5083665;28;20067;-52
2022/05/12 01:52:35;;;;;;;0.63;0.20;;;;;;;21.75;45.76;101389.63;5076983;28;20036;-54
2022/05/12 01:55:00;;;;;;;0.70;0.40;;;;;;;21.74;45.68;101390.63;5063480;28;20036;-53
2022/05/12 01:57:28;;;;;;;0.30;0.30;;;;;;;21.74;45.85;101392.50;5063579;28;20024;-54
2022/05/12 01:59:53;;;;;;;0.50;0.30;;;;;;;21.69;45.89;101385.75;5063010;28;20033;-50
2022/05/12 02:02:18;;;;;;;0.47;0.30;;;;;;;21.72;45.80;101392.69;5063224;28;20025;-49
2022/05/12 02:04:43;;;;;;;0.88;0.30;;;;;;;21.72;45.91;101392.69;5063398;28;20043;-53
2022/05/12 02:07:09;;;;;;;0.70;0.40;;;;;;;21.72;45.87;101398.09;5065429;28;20025;-51
2022/05/12 02:09:35;;;;;;;0.73;0.43;;;;;;;21.71;45.86;101396.41;5085490;28;20032;-50
2022/05/12 02:12:00;;;;;;;0.70;0.52;;;;;;;21.71;45.55;101407.25;5087116;28;20032;-51
2022/05/12 02:14:27;;;;;;;0.80;0.35;;;;;;;21.71;45.86;101408.09;5086529;28;20055;-50
2022/05/12 02:16:52;;;;;;;0.82;0.40;;;;;;;21.71;45.57;101407.25;5086202;28;20028;-52
2022/05/12 02:19:17;;;;;;;0.50;0.32;;;;;;;21.70;45.42;101413.66;5087609;28;20020;-47
2022/05/12 02:21:42;;;;;;;0.60;0.40;;;;;;;21.68;45.44;101413.00;5086879;28;20064;-47
2022/05/12 02:24:08;;;;;;;0.75;0.40;;;;;;;21.67;45.58;101422.97;5087456;28;20056;-48
2022/05/12 02:26:34;;;;;;;0.52;0.40;;;;;;;21.63;45.51;101418.94;5086935;28;20027;-47
2022/05/12 02:29:00;;;;;;;1.08;0.38;;;;;;;21.67;45.26;101430.25;5067483;28;20029;-48
2022/05/12 02:31:25;;;;;;;1.00;0.35;;;;;;;21.67;45.14;101430.25;5066611;28;20054;-46
2022/05/12 02:33:51;;;;;;;0.55;0.30;;;;;;;21.66;45.51;101434.84;5085594;28;20082;-50
2022/05/12 02:36:16;;;;;;;0.88;0.38;;;;;;;21.64;45.25;101439.56;5086452;28;20100;-52
2022/05/12 02:38:41;;;;;;;0.45;0.32;;;;;;;21.64;45.25;101442.25;5083865;28;20020;-51
2022/05/12 02:41:07;;;;;;;0.50;0.30;;;;;;;21.63;45.33;101440.59;5093109;28;20032;-47
2022/05/12 02:43:32;;;;;;;0.50;0.40;;;;;;;21.63;45.36;101446.00;5083667;28;20067;-47
2022/05/12 02:46:06;;;;;;;0.40;0.30;;;;;;;21.64;45.01;101450.38;5066078;28;20037;-51
2022/05/12 02:48:38;;;;;;;0.70;0.30;;;;;;;21.63;44.91;101447.88;5081277;28;20052;-50
2022/05/12 02:51:03;;;;;;;1.58;0.55;;;;;;;21.62;45.05;101448.84;5086586;28;20024;-53
2022/05/12 02:53:29;;;;;;;0.43;0.30;;;;;;;21.62;45.08;101454.28;5086603;28;20039;-52
2022/05/12 02:55:55;;;;;;;0.40;0.40;;;;;;;21.61;45.00;101455.28;5086431;28;20589;-49
2022/05/12 02:58:20;;;;;;;0.55;0.30;;;;;;;21.58;45.09;101459.22;5086799;28;20031;-53
2022/05/12 03:00:48;;;;;;;0.40;0.30;;;;;;;21.61;45.02;101466.13;5085945;28;20028;-50
2022/05/12 03:03:13;;;;;;;0.30;0.20;;;;;;;21.58;45.13;101463.75;5086179;28;20032;-53
2022/05/12 03:05:39;;;;;;;0.57;0.30;;;;;;;21.59;44.74;101468.16;5086439;28;20679;-53
2022/05/12 03:08:06;;;;;;;0.30;0.30;;;;;;;21.58;44.99;101463.75;5085935;28;20437;-53
2022/05/12 03:10:32;;;;;;;0.20;0.20;;;;;;;21.59;44.78;101470.88;5085651;28;20052;-53
2022/05/12 03:12:58;;;;;;;0.30;0.20;;;;;;;21.58;44.82;101470.03;5085965;28;20079;-51
2022/05/12 03:15:23;;;;;;;0.55;0.35;;;;;;;21.56;45.06;101460.38;5085440;28;20036;-52
2022/05/12 03:17:49;;;;;;;1.02;0.50;;;;;;;21.55;44.93;101466.81;5086414;28;20117;-53
2022/05/12 03:20:18;;;;;;;0.75;0.45;;;;;;;21.57;44.86;101465.63;5085195;28;20432;-50
2022/05/12 03:22:44;;;;;;;0.75;0.30;;;;;;;21.56;44.87;101468.50;5080286;28;20056;-49
2022/05/12 03:25:10;;;;;;;0.43;0.32;;;;;;;21.56;44.61;101473.91;5066158;28;20063;-51
2022/05/12 03:27:36;;;;;;;0.45;0.30;;;;;;;21.56;44.86;101476.63;5069885;28;20043;-50
2022/05/12 03:30:03;;;;;;;0.55;0.45;;;;;;;21.52;44.66;101476.13;5085471;28;20033;-48
2022/05/12 03:32:28;;;;;;;0.90;0.40;;;;;;;21.54;44.81;101479.50;5082375;28;20463;-48
2022/05/12 03:34:53;;;;;;;0.30;0.30;;;;;;;21.53;44.59;101477.81;5065994;28;20504;-52
2022/05/12 03:37:19;;;;;;;0.43;0.35;;;;;;;21.53;44.71;101483.22;5065085;28;20804;-51
2022/05/12 03:39:44;;;;;;;0.40;0.30;;;;;;;21.52;44.85;101491.50;5095668;28;20040;-48
2022/05/12 03:42:15;;;;;;;0.63;0.30;;;;;;;21.52;44.88;101489.66;5084796;28;20032;-48
2022/05/12 03:44:50;;;;;;;0.50;0.30;;;;;;;21.50;44.66;101494.41;5085652;28;20465;-49
2022/05/12 03:47:21;;;;;;;0.38;0.30;;;;;;;21.51;44.84;101500.66;5085199;28;20048;-51
2022/05/12 03:49:47;;;;;;;0.68;0.40;;;;;;;21.51;44.46;101506.06;5085673;28;20063;-49
2022/05/12 03:52:13;;;;;;;0.85;0.40;;;;;;;21.49;44.53;101508.91;5085445;28;20096;-52
2022/05/12 03:54:39;;;;;;;0.90;0.60;;;;;;;21.48;44.48;101507.25;5075171;28;20040;-47
2022/05/12 03:57:06;;;;;;;0.75;0.30;;;;;;;21.46;44.31;101509.28;5081983;28;20020;-49
2022/05/12 03:59:31;;;;;;;0.30;0.30;;;;;;;21.49;44.66;101517.03;5080424;28;20157;-50
2022/05/12 04:01:57;;;;;;;0.68;0.30;;;;;;;21.49;44.54;101527.00;5084398;28;20503;-49
2022/05/12 04:04:22;;;;;;;0.95;0.40;;;;;;;21.49;44.47;101524.31;5075556;28;20413;-48
2022/05/12 04:06:47;;;;;;;1.25;0.52;;;;;;;21.49;44.69;101532.44;5077618;28;20024;-49
2022/05/12 04:09:12;;;;;;;0.40;0.30;;;;;;;21.49;44.58;101527.00;5083244;28;20092;-48
2022/05/12 04:11:37;;;;;;;1.15;0.60;;;;;;;21.49;44.24;101535.97;5076392;28;20088;-48
2022/05/12 04:14:04;;;;;;;0.30;0.30;;;;;;;21.49;44.18;101537.84;5076248;28;20040;-51
2022/05/12 04:16:32;;;;;;;0.50;0.47;;;;;;;21.43;44.43;101532.09;5079944;28;20024;-49
2022/05/12 04:18:57;;;;;;;0.40;0.40;;;;;;;21.48;44.27;101537.00;5081841;28;20547;-48
2022/05/12 04:21:23;;;;;;;0.60;0.40;;;;;;;21.48;44.11;101537.00;5080619;28;20027;-48
2022/05/12 04:23:48;;;;;;;0.57;0.47;;;;;;;21.49;44.39;101540.53;5082095;28;20013;-49
2022/05/12 04:26:13;;;;;;;0.70;0.40;;;;;;;21.48;44.16;101545.13;5078870;28;20058;-50
2022/05/12 04:28:38;;;;;;;0.50;0.30;;;;;;;21.47;44.31;101554.25;5082520;28;20036;-49
2022/05/12 04:31:03;;;;;;;0.80;0.32;;;;;;;21.47;44.22;101551.56;5080615;28;20082;-46
2022/05/12 04:36:13;;;;;;;0.85;0.30;;;;;;;21.48;44.20;101549.69;5073245;28;20031;-47
2022/05/12 04:38:39;;;;;;;0.70;0.32;;;;;;;21.47;44.44;101551.56;5086782;28;20029;-48
2022/05/12 04:41:04;;;;;;;1.02;0.50;;;;;;;21.47;44.29;101554.25;5081280;28;20046;-51
2022/05/12 04:43:30;;;;;;;0.95;0.50;;;;;;;21.46;44.49;101572.34;5081252;28;20021;-47
2022/05/12 04:45:55;;;;;;;0.40;0.40;;;;;;;21.45;44.17;101573.38;5075233;28;20024;-49
2022/05/12 04:48:20;;;;;;;0.43;0.32;;;;;;;21.46;44.24;101569.66;5073994;28;20079;-48
2022/05/12 04:50:45;;;;;;;1.05;0.50;;;;;;;21.45;44.30;101573.38;5080284;28;20032;-46
2022/05/12 04:53:11;;;;;;;0.80;0.40;;;;;;;21.45;44.22;101576.09;5083664;28;20026;-48
2022/05/12 04:55:37;;;;;;;0.85;0.30;;;;;;;21.45;44.24;101586.91;5077113;28;20084;-47
2022/05/12 04:58:02;;;;;;;1.35;0.43;;;;;;;21.44;44.75;101595.16;5080653;28;20009;-48
2022/05/12 05:00:37;;;;;;;0.40;0.30;;;;;;;21.45;44.29;101592.31;5074315;28;20040;-50
2022/05/12 05:03:04;;;;;;;0.93;0.50;;;;;;;21.45;44.60;101596.84;5078338;28;20028;-48
2022/05/12 05:05:30;;;;;;;0.30;0.30;;;;;;;21.45;44.25;101602.25;5079214;28;20088;-49
2022/05/12 05:07:55;;;;;;;0.63;0.30;;;;;;;21.44;44.58;101601.41;5072418;28;20056;-50
2022/05/12 05:10:21;;;;;;;0.35;0.30;;;;;;;21.44;44.17;101603.28;5078156;28;20460;-49
2022/05/12 05:12:46;;;;;;;1.13;0.40;;;;;;;21.43;44.58;101610.56;5083339;28;20059;-48
2022/05/12 05:15:14;;;;;;;0.47;0.40;;;;;;;21.44;44.44;101606.81;5077048;28;20031;-52
2022/05/12 05:17:39;;;;;;;0.40;0.32;;;;;;;21.44;44.28;101612.25;5063880;28;20541;-46
2022/05/12 05:20:07;;;;;;;0.55;0.55;;;;;;;21.45;44.68;101615.78;5063765;28;20036;-53
2022/05/12 05:22:33;;;;;;;0.98;0.50;;;;;;;21.44;44.64;101614.09;5076175;28;20040;-48
2022/05/12 05:24:59;;;;;;;0.57;0.30;;;;;;;21.43;44.75;101618.66;5080702;28;20016;-50
2022/05/12 05:27:24;;;;;;;1.63;0.63;;;;;;;21.44;44.37;101612.25;5082910;28;20031;-49
2022/05/12 05:29:51;;;;;;;0.68;0.60;;;;;;;21.42;44.59;101619.69;5082928;28;20032;-48
2022/05/12 05:32:16;;;;;;;1.35;0.75;;;;;;;21.43;44.44;101629.50;5081845;28;20413;-48
2022/05/12 05:34:41;;;;;;;0.43;0.20;;;;;;;21.43;44.39;101636.75;5084028;28;20021;-49
2022/05/12 05:37:06;;;;;;;0.90;0.30;;;;;;;21.42;44.68;101641.34;5083055;28;20131;-49
2022/05/12 05:39:32;;;;;;;0.40;0.40;;;;;;;21.39;44.21;101632.69;5097986;28;20035;-50
2022/05/12 05:42:01;;;;;;;0.80;0.50;;;;;;;21.43;44.43;101636.75;5103271;28;20028;-46
2022/05/12 05:44:28;;;;;;;0.77;0.45;;;;;;;21.41;44.40;101639.66;5093076;28;20013;-49
2022/05/12 05:46:54;;;;;;;1.45;0.57;;;;;;;21.42;45.04;101637.78;5082931;28;20048;-47
2022/05/12 05:49:19;;;;;;;0.68;0.50;;;;;;;21.42;45.22;101649.44;5083985;28;20032;-49
2022/05/12 05:54:31;;;;;;;0.47;0.40;;;;;;;21.41;45.27;101658.59;5083031;28;20039;-48
2022/05/12 05:56:57;;;;;;;0.60;0.40;;;;;;;21.42;45.75;101664.84;5083458;28;20100;-48
2022/05/12 05:59:22;;;;;;;1.10;0.50;;;;;;;21.42;45.36;101665.69;5083693;28;20031;-49
2022/05/12 06:01:47;;;;;;;1.70;0.57;;;;;;;21.41;45.25;101674.81;5083016;28;20035;-48
2022/05/12 06:04:13;;;;;;;1.00;0.50;;;;;;;21.41;45.22;101679.38;5083741;28;20032;-48
2022/05/12 06:06:38;;;;;;;0.65;0.40;;;;;;;21.41;45.21;101680.22;5082854;28;20032;-51
2022/05/12 06:09:03;;;;;;;0.45;0.30;;;;;;;21.41;45.28;101680.22;5083624;28;20029;-48
2022/05/12 06:11:28;;;;;;;0.35;0.30;;;;;;;21.41;45.24;101693.75;5083208;28;20020;-49
2022/05/12 06:13:54;;;;;;;0.98;0.40;;;;;;;21.41;45.58;101693.75;5083340;28;20039;-49
2022/05/12 06:16:20;;;;;;;0.70;0.38;;;;;;;21.41;45.54;101690.22;5082561;28;20040;-46
2022/05/12 06:18:46;;;;;;;0.68;0.38;;;;;;;21.41;45.15;101695.63;5083759;28;20025;-52
2022/05/12 06:21:12;;;;;;;0.60;0.40;;;;;;;21.41;45.43;101699.16;5083360;28;20028;-49
2022/05/12 06:23:38;;;;;;;0.55;0.40;;;;;;;21.41;45.59;101699.16;5082513;28;20055;-47
2022/05/12 06:26:06;;;;;;;0.63;0.50;;;;;;;21.42;45.30;101708.97;5082922;28;20032;-49
2022/05/12 06:28:31;;;;;;;0.82;0.40;;;;;;;21.40;45.13;101708.28;5083594;28;20024;-49
2022/05/12 06:30:56;;;;;;;1.10;0.57;;;;;;;21.42;45.12;101708.97;5082583;28;20082;-50
2022/05/12 06:33:22;;;;;;;0.63;0.40;;;;;;;21.42;45.00;101716.25;5083342;28;20032;-49
2022/05/12 06:35:49;;;;;;;1.08;0.40;;;;;;;21.44;44.93;101719.63;5083117;28;20032;-47
2022/05/12 06:38:14;;;;;;;0.73;0.40;;;;;;;21.43;44.96;101712.53;5085942;28;20020;-50
2022/05/12 06:40:40;;;;;;;0.88;0.70;;;;;;;21.43;44.84;101720.63;5103367;28;20020;-50
2022/05/12 06:43:07;;;;;;;0.82;0.38;;;;;;;21.44;44.93;101719.63;5103007;28;20024;-49
2022/05/12 06:45:32;;;;;;;0.65;0.40;;;;;;;21.44;44.95;101727.72;5083037;28;20055;-52
2022/05/12 06:47:58;;;;;;;0.65;0.50;;;;;;;21.44;44.55;101739.41;5082517;28;20052;-48
2022/05/12 06:50:26;;;;;;;0.65;0.30;;;;;;;21.45;44.82;101727.59;5083145;28;20021;-50
2022/05/12 06:52:52;;;;;;;0.40;0.30;;;;;;;21.46;44.76;101736.53;5082224;28;20036;-48
2022/05/12 06:55:17;;;;;;;0.65;0.30;;;;;;;21.46;44.68;101739.25;5084032;28;20089;-48
2022/05/12 06:57:43;;;;;;;0.43;0.30;;;;;;;21.48;44.87;101742.63;5086422;28;20024;-47
2022/05/12 07:00:09;;;;;;;0.52;0.32;;;;;;;21.49;44.78;101735.34;5085789;28;20044;-49
2022/05/12 07:02:35;;;;;;;0.40;0.30;;;;;;;21.50;44.92;101747.88;5083915;28;20111;-50
2022/05/12 07:05:01;;;;;;;1.10;0.50;;;;;;;21.49;44.97;101751.59;5086797;28;20067;-47
2022/05/12 07:07:28;;;;;;;0.52;0.50;;;;;;;21.49;44.56;101757.00;5085860;28;20543;-50
2022/05/12 07:09:54;;;;;;;0.70;0.60;;;;;;;21.44;44.84;101746.66;5086563;28;20028;-50
2022/05/12 07:12:20;;;;;;;1.77;0.47;;;;;;;21.47;44.67;101754.47;5086144;28;20055;-47
2022/05/12 07:14:45;;;;;;;0.95;0.40;;;;;;;21.49;44.48;101762.41;5086627;28;20028;-48
2022/05/12 07:17:11;;;;;;;0.50;0.30;;;;;;;21.48;44.56;101761.56;5085807;28;20012;-51
2022/05/12 07:19:36;;;;;;;0.32;0.30;;;;;;;21.48;44.56;101761.56;5086606;28;20020;-48
2022/05/12 07:27:29;;;;;;;0.60;0.38;;;;;;;21.50;44.51;101766.84;5086158;28;20051;-50
2022/05/12 07:29:54;;;;;;;0.30;0.30;;;;;;;21.50;44.48;101772.25;5085519;28;20020;-45
2022/05/12 07:32:20;;;;;;;0.73;0.40;;;;;;;21.47;44.85;101773.41;5086122;28;20074;-48
2022/05/12 07:34:45;;;;;;;0.60;0.40;;;;;;;21.52;44.63;101772.91;5086200;28;20020;-50
2022/05/12 07:37:11;;;;;;;0.95;0.63;;;;;;;21.53;44.73;101777.31;5085221;28;20032;-50
2022/05/12 07:39:36;;;;;;;0.60;0.30;;;;;;;21.53;44.44;101780.00;5085944;28;20035;-48
2022/05/12 07:42:03;;;;;;;0.57;0.38;;;;;;;21.50;44.65;101773.09;5085763;28;20029;-50
2022/05/12 07:44:34;;;;;;;0.43;0.30;;;;;;;21.52;44.19;101773.75;5075378;28;20021;-48
2022/05/12 07:47:04;;;;;;;0.55;0.32;;;;;;;21.54;44.57;101776.31;5065160;28;20097;-50
2022/05/12 07:49:32;;;;;;;0.75;0.30;;;;;;;21.53;44.63;101782.72;5065865;28;20388;-53
2022/05/12 07:51:59;;;;;;;0.32;0.30;;;;;;;21.51;44.54;101785.59;5065190;28;20029;-50
2022/05/12 07:54:24;;;;;;;0.90;0.30;;;;;;;21.51;44.28;101790.16;5083930;28;20032;-50
2022/05/12 07:56:49;;;;;;;0.20;0.20;;;;;;;21.51;44.64;101795.56;5085467;28;20059;-49
2022/05/12 07:59:15;;;;;;;0.52;0.25;;;;;;;21.49;44.31;101789.47;5085684;28;20040;-51
2022/05/12 08:01:40;;;;;;;0.43;0.30;;;;;;;21.52;44.38;101799.97;5084903;28;20174;-49
2022/05/12 08:04:05;;;;;;;0.50;0.30;;;;;;;21.51;44.83;101801.81;5099860;28;20027;-48
2022/05/12 08:06:31;;;;;;;0.55;0.30;;;;;;;21.52;44.47;101792.69;5104500;28;20043;-47
2022/05/12 08:08:57;;;;;;;0.20;0.20;;;;;;;21.53;44.32;101796.25;5105596;28;20023;-48
2022/05/12 08:11:22;;;;;;;1.27;0.47;;;;;;;21.51;44.00;101800.97;5105580;28;20031;-49
2022/05/12 08:13:48;;;;;;;0.40;0.30;;;;;;;21.55;43.74;101803.19;5105521;28;20028;-50
2022/05/12 08:16:15;;;;;;;0.52;0.20;;;;;;;21.54;43.83;101804.22;5104073;28;20027;-48
2022/05/12 08:18:42;;;;;;;0.35;0.30;;;;;;;21.56;44.08;101804.88;5085360;28;20017;-51
2022/05/12 08:21:07;;;;;;;0.40;0.25;;;;;;;21.58;43.78;101815.53;5085264;28;20028;-51
2022/05/12 08:23:32;;;;;;;0.30;0.28;;;;;;;21.59;44.06;101803.72;5084686;28;20039;-45
2022/05/12 08:25:57;;;;;;;0.68;0.30;;;;;;;21.58;43.84;101802.00;5084846;28;20029;-47
2022/05/12 08:28:24;;;;;;;0.80;0.40;;;;;;;21.60;44.00;101808.97;5085079;28;20044;-52
2022/05/12 08:30:50;;;;;;;0.40;0.30;;;;;;;21.59;43.99;101811.84;5084431;28;20020;-51
2022/05/12 08:33:16;;;;;;;0.40;0.40;;;;;;;21.58;43.90;101816.41;5084914;28;20063;-49
2022/05/12 08:35:42;;;;;;;0.65;0.32;;;;;;;21.59;43.73;101818.09;5084897;28;20024;-52
2022/05/12 08:38:08;;;;;;;0.98;0.40;;;;;;;21.58;44.09;101816.41;5084354;28;20051;-52
2022/05/12 08:40:52;;;;;;;0.43;0.38;;;;;;;21.60;44.02;101824.34;5084776;28;20636;-49
2022/05/12 08:43:25;;;;;;;0.38;0.35;;;;;;;21.58;44.06;101821.81;5084482;28;20024;-51
2022/05/12 08:46:02;;;;;;;0.30;0.30;;;;;;;21.57;43.88;101820.09;5082689;28;20044;-51
2022/05/12 08:48:28;;;;;;;0.63;0.40;;;;;;;21.58;43.92;101823.66;5083650;28;20043;-48
2022/05/12 08:50:55;;;;;;;0.30;0.30;;;;;;;21.58;43.88;101818.25;5084446;28;20044;-48
2022/05/12 08:53:25;;;;;;;0.57;0.20;;;;;;;21.58;43.73;101818.25;5082944;28;20052;-51
2022/05/12 08:55:53;;;;;;;0.60;0.30;;;;;;;21.58;44.05;101827.22;5083180;28;20024;-48
2022/05/12 08:58:21;;;;;;;0.50;0.38;;;;;;;21.59;43.77;101818.09;5084348;28;20447;-50
2022/05/12 09:01:04;;;;;;;0.32;0.30;;;;;;;21.59;43.53;101831.63;5083781;28;20024;-50
2022/05/12 09:03:42;;;;;;;0.30;0.30;;;;;;;21.60;43.90;101832.47;5094067;28;20088;-49
2022/05/12 09:06:16;;;;;;;0.28;0.20;;;;;;;21.61;43.52;101834.16;5104552;28;20085;-50
2022/05/12 09:08:51;;;;;;;0.52;0.50;;;;;;;21.60;43.66;101833.31;5104041;28;20701;-51
2022/05/12 09:11:25;;;;;;;0.70;0.55;;;;;;;21.59;43.62;101828.91;5103149;28;20020;-52
2022/05/12 09:13:52;;;;;;;0.90;0.30;;;;;;;21.61;43.61;101829.59;5103040;28;20062;-48
2022/05/12 09:16:20;;;;;;;0.95;0.40;;;;;;;21.59;43.80;101833.50;5103077;28;20059;-47
2022/05/12 09:18:45;;;;;;;0.50;0.50;;;;;;;21.60;43.90;101840.59;5063420;28;20108;-47
2022/05/12 09:21:14;;;;;;;0.20;0.20;;;;;;;21.61;43.51;101839.56;5064116;28;20025;-46
2022/05/12 09:23:40;;;;;;;0.22;0.22;;;;;;;21.58;43.67;101837.19;5063693;28;20061;-47
2022/05/12 09:26:30;;;;;;;0.82;0.30;;;;;;;21.60;43.70;101841.44;5063706;28;20029;-46
2022/05/12 09:29:06;;;;;;;0.32;0.30;;;;;;;21.60;43.79;101843.28;5064074;28;20032;-51
2022/05/12 09:31:31;;;;;;;0.65;0.30;;;;;;;21.59;43.70;101841.59;5063351;28;20082;-50
2022/05/12 09:34:13;;;;;;;0.60;0.40;;;;;;;21.60;43.46;101841.44;5063732;28;20036;-50
2022/05/12 09:36:38;;;;;;;0.90;0.30;;;;;;;21.60;43.90;101837.88;5063283;28;20028;-47
2022/05/12 09:39:04;;;;;;;0.43;0.30;;;;;;;21.61;43.55;101839.56;5078081;28;20050;-47
2022/05/12 09:41:43;;;;;;;0.52;0.22;;;;;;;21.63;43.38;101837.56;5083654;28;20033;-50
2022/05/12 09:44:19;;;;;;;0.30;0.20;;;;;;;21.63;43.52;101834.84;5083801;28;20032;-47
2022/05/12 09:46:55;;;;;;;0.22;0.20;;;;;;;21.63;43.34;101827.59;5082852;28;20025;-48
2022/05/12 09:49:23;;;;;;;1.23;1.13;;;;;;;21.63;43.87;101822.16;5083889;28;20044;-47
2022/05/12 09:51:48;;;;;;;0.73;0.40;;;;;;;21.64;43.58;101825.72;5083171;28;20028;-46
2022/05/12 09:54:17;;;;;;;0.68;0.40;;;;;;;21.65;43.43;101827.41;5083727;28;20437;-46
2022/05/12 09:56:46;;;;;;;0.50;0.30;;;;;;;21.67;43.60;101830.81;5082460;28;20027;-50
2022/05/12 09:59:14;;;;;;;0.77;0.40;;;;;;;21.67;43.71;101831.66;5083734;28;20035;-48
2022/05/12 10:01:54;;;;;;;0.40;0.40;;;;;;;21.68;43.58;101833.34;5082801;28;20384;-49
2022/05/12 10:10:05;;;;;;;0.50;0.30;;;;;;;21.71;43.65;101821.34;5082199;28;20405;-49
2022/05/12 10:12:35;;;;;;;1.85;0.43;;;;;;;21.72;43.59;101823.03;5081995;28;20020;-49
2022/05/12 10:15:10;;;;;;;0.40;0.30;;;;;;;21.74;43.46;101822.84;5081786;28;20021;-49
2022/05/12 10:17:44;;;;;;;0.40;0.30;;;;;;;21.74;43.53;101818.28;5082132;28;20154;-48
2022/05/12 10:20:18;;;;;;;0.80;0.40;;;;;;;21.75;43.71;101821.84;5082046;28;20054;-49
2022/05/12 10:23:05;;;;;;;0.43;0.40;;;;;;;21.75;43.60;101822.72;5083055;28;20024;-47
2022/05/12 10:25:47;;;;;;;0.60;0.30;;;;;;;21.75;43.54;101827.25;5082138;28;20038;-47
2022/05/12 10:28:43;;;;;;;1.20;0.30;;;;;;;21.75;43.44;101832.66;5081654;28;20070;-46
2022/05/12 10:31:28;;;;;;;0.93;0.38;;;;;;;21.73;43.71;101829.28;5084599;28;20102;-47
2022/05/12 10:34:35;;;;;;;0.35;0.30;;;;;;;21.73;43.51;101829.28;5086271;28;20108;-49
2022/05/12 10:37:33;;;;;;;0.32;0.30;;;;;;;21.73;43.46;101826.59;5070249;28;20609;-51
2022/05/12 10:40:23;;;;;;;0.88;0.55;;;;;;;21.73;43.49;101832.00;5085941;28;20032;-46
2022/05/12 10:43:00;;;;;;;0.60;0.30;;;;;;;21.74;43.52;101837.25;5085533;28;20067;-46
2022/05/12 10:45:45;;;;;;;0.30;0.30;;;;;;;21.72;43.83;101833.88;5068107;28;20033;-48
2022/05/12 10:48:29;;;;;;;0.30;0.22;;;;;;;21.73;43.70;101838.25;5066930;28;20068;-48
2022/05/12 10:50:58;;;;;;;0.38;0.28;;;;;;;21.74;43.73;101839.94;5066761;28;20024;-50
2022/05/12 10:53:33;;;;;;;0.22;0.20;;;;;;;21.76;43.59;101839.81;5066515;28;20430;-46
2022/05/12 10:56:08;;;;;;;0.30;0.30;;;;;;;21.78;43.74;101843.19;5065254;28;20397;-50
2022/05/12 10:58:55;;;;;;;0.28;0.20;;;;;;;21.79;43.62;101840.31;5077652;28;20023;-47
2022/05/12 11:01:26;;;;;;;0.47;0.30;;;;;;;21.78;43.73;101835.91;5084638;28;20036;-53
2022/05/12 11:04:03;;;;;;;0.30;0.20;;;;;;;21.80;43.50;101841.16;5097959;28;20030;-52
2022/05/12 11:06:38;;;;;;;0.60;0.30;;;;;;;21.81;43.78;101840.16;5106658;28;20087;-48
2022/05/12 11:09:08;;;;;;;0.30;0.30;;;;;;;21.77;43.51;101830.66;5107102;28;20055;-49
2022/05/12 11:11:40;;;;;;;0.38;0.22;;;;;;;21.81;43.81;101830.16;5106476;28;20092;-47
2022/05/12 11:14:18;;;;;;;0.38;0.30;;;;;;;21.84;43.60;101829.00;5105640;28;20024;-46
2022/05/12 11:16:53;;;;;;;0.40;0.20;;;;;;;21.82;43.55;101821.03;5104956;28;20084;-45
2022/05/12 11:19:24;;;;;;;0.47;0.45;;;;;;;21.83;43.55;101828.13;5105795;28;20035;-48
2022/05/12 11:22:07;;;;;;;0.40;0.30;;;;;;;21.85;43.64;101823.41;5106051;28;20089;-51
2022/05/12 11:24:55;;;;;;;0.52;0.30;;;;;;;21.86;43.60;101822.38;5105595;28;20035;-48
2022/05/12 11:29:41;;;;;;;0.30;0.20;;;;;;;21.87;43.79;101818.66;5093349;28;20060;-49
2022/05/12 11:30:47;;;;;;;0.32;0.30;;;;;;;21.87;43.82;101820.53;5069501;28;20044;-49
2022/05/12 11:33:38;;;;;;;0.50;0.40;;;;;;;21.90;43.71;101823.75;5084808;28;20028;-48
2022/05/12 11:36:03;;;;;;;0.50;0.40;;;;;;;21.89;43.90;101813.94;5086046;28;20075;-49
2022/05/12 11:38:35;;;;;;;0.35;0.35;;;;;;;21.93;43.67;101817.16;5084635;28;20016;-47
2022/05/12 11:41:00;;;;;;;0.38;0.28;;;;;;;21.94;43.74;101813.44;5085188;28;20033;-51
2022/05/12 11:46:41;;;;;;;0.30;0.30;;;;;;;21.99;43.90;101837.31;5064994;28;20075;-47
2022/05/12 11:49:13;;;;;;;0.52;0.32;;;;;;;22.01;43.74;101829.88;5065925;28;20045;-50